createdAt,value
2019-05-25T00:36:48.902Z,11.60
2019-05-25T00:41:43.981Z,11.10
2019-05-25T00:46:38.991Z,11.10
2019-05-25T00:49:06.626Z,11.00
2019-05-25T00:51:34.275Z,10.90
2019-05-25T00:54:01.986Z,10.90
2019-05-25T00:56:29.636Z,10.90
2019-05-25T00:58:57.282Z,10.90
2019-05-25T01:01:25.018Z,10.80
2019-05-25T01:03:52.666Z,10.60
2019-05-25T01:08:47.679Z,10.30
2019-05-25T01:11:15.336Z,10.50
2019-05-25T01:13:42.983Z,10.40
2019-05-25T01:16:10.646Z,10.40
2019-05-25T01:18:38.322Z,10.40
2019-05-25T01:21:06.027Z,10.50
2019-05-25T01:23:33.663Z,10.50
2019-05-25T01:26:01.311Z,10.50
2019-05-25T01:28:29.027Z,10.50
2019-05-25T01:30:56.680Z,10.60
2019-05-25T01:33:24.326Z,10.60
2019-05-25T01:35:51.978Z,10.60
2019-05-25T01:38:19.616Z,10.60
2019-05-25T01:40:47.281Z,10.40
2019-05-25T01:43:14.927Z,10.40
2019-05-25T01:45:42.576Z,10.50
2019-05-25T01:48:10.215Z,10.50
2019-05-25T01:50:37.878Z,10.40
2019-05-25T01:53:05.513Z,10.40
2019-05-25T01:55:33.187Z,10.30
2019-05-25T01:58:00.813Z,10.30
2019-05-25T02:00:28.515Z,10.20
2019-05-25T02:02:56.159Z,10.30
2019-05-25T02:05:23.794Z,10.30
2019-05-25T02:07:51.454Z,10.30
2019-05-25T02:10:19.100Z,10.30
2019-05-25T02:15:14.179Z,10.20
2019-05-25T02:17:41.827Z,10.20
2019-05-25T02:20:09.850Z,10.20
2019-05-25T02:22:37.505Z,10.10
2019-05-25T02:25:17.166Z,10.20
2019-05-25T02:27:36.084Z,10.10
2019-05-25T02:30:05.329Z,10.20
2019-05-25T02:32:32.994Z,10.30
2019-05-25T02:35:00.627Z,10.20
2019-05-25T02:37:28.288Z,10.20
2019-05-25T02:39:55.922Z,10.10
2019-05-25T02:42:23.563Z,10.20
2019-05-25T02:47:18.626Z,9.80
2019-05-25T02:49:46.301Z,9.80
2019-05-25T02:52:13.948Z,9.90
2019-05-25T02:54:41.580Z,10.00
2019-05-25T02:57:09.234Z,10.00
2019-05-25T02:59:36.867Z,9.90
2019-05-25T03:02:04.510Z,10.00
2019-05-25T03:04:32.153Z,10.00
2019-05-25T03:07:00.766Z,10.00
2019-05-25T03:09:28.978Z,10.00
2019-05-25T03:11:58.180Z,10.00
2019-05-25T03:14:25.820Z,10.10
2019-05-25T03:16:53.468Z,10.00
2019-05-25T03:56:11.704Z,9.70
2019-05-25T03:58:39.348Z,9.70
2019-05-25T04:01:06.983Z,9.70
2019-05-25T04:03:34.675Z,9.70
2019-05-25T04:06:02.316Z,9.70
2019-05-25T04:08:29.955Z,9.80
2019-05-25T04:13:24.976Z,10.10
2019-05-25T04:18:19.985Z,10.30
2019-05-25T04:20:47.628Z,10.40
2019-05-25T04:23:15.282Z,10.40
2019-05-25T04:25:42.917Z,10.50
2019-05-25T04:28:10.575Z,10.50
2019-05-25T04:30:38.212Z,10.60
2019-05-25T04:33:06.755Z,10.60
2019-05-25T04:35:34.390Z,10.60
2019-05-25T04:38:02.039Z,10.70
2019-05-25T04:40:29.667Z,10.50
2019-05-25T04:42:57.327Z,10.30
2019-05-25T04:45:24.972Z,10.30
2019-05-25T04:47:52.623Z,10.30
2019-05-25T04:50:20.422Z,10.40
2019-05-25T04:52:48.083Z,10.40
2019-05-25T04:55:15.712Z,10.30
2019-05-25T04:57:43.357Z,10.30
2019-05-25T05:00:11.363Z,10.40
2019-05-25T05:02:39.019Z,10.50
2019-05-25T05:05:07.126Z,10.60
2019-05-25T05:07:34.790Z,10.70
2019-05-25T05:10:03.464Z,10.90
2019-05-25T05:12:31.198Z,10.80
2019-05-25T05:14:58.847Z,10.90
2019-05-25T05:17:26.493Z,11.20
2019-05-25T05:22:21.513Z,11.30
2019-05-25T05:24:49.156Z,11.40
2019-05-25T05:27:16.783Z,11.60
2019-05-25T05:29:44.438Z,11.60
2019-05-25T05:32:26.357Z,12.00
2019-05-25T05:34:41.447Z,12.00
2019-05-25T05:37:09.256Z,12.10
2019-05-25T05:39:37.078Z,12.10
2019-05-25T05:42:04.771Z,12.10
2019-05-25T05:44:32.420Z,12.10
2019-05-25T05:47:01.938Z,12.20
2019-05-25T05:51:58.480Z,12.60
2019-05-25T05:54:26.399Z,13.00
2019-05-25T05:56:54.031Z,13.10
2019-05-25T05:59:21.675Z,13.30
2019-05-25T06:01:49.324Z,13.50
2019-05-25T06:04:16.971Z,13.70
2019-05-25T06:06:44.602Z,13.70
2019-05-25T06:09:12.528Z,13.50
2019-05-25T06:11:40.158Z,13.40
2019-05-25T06:14:07.802Z,13.40
2019-05-25T06:16:35.462Z,13.20
2019-05-25T06:19:03.087Z,13.40
2019-05-25T06:21:30.739Z,13.40
2019-05-25T06:23:58.426Z,13.40
2019-05-25T06:26:26.108Z,13.40
2019-05-25T06:28:53.758Z,13.50
2019-05-25T06:31:21.411Z,13.50
2019-05-25T06:33:49.052Z,13.60
2019-05-25T06:36:16.725Z,13.50
2019-05-25T06:38:44.385Z,13.60
2019-05-25T06:41:12.036Z,13.70
2019-05-25T06:46:07.116Z,14.10
2019-05-25T06:48:34.818Z,14.40
2019-05-25T06:51:02.474Z,14.30
2019-05-25T06:53:30.109Z,14.70
2019-05-25T06:55:57.763Z,15.10
2019-05-25T06:58:25.403Z,14.90
2019-05-25T07:00:53.055Z,15.00
2019-05-25T07:05:48.047Z,15.30
2019-05-25T07:08:15.709Z,15.40
2019-05-25T07:10:43.339Z,15.70
2019-05-25T07:13:10.996Z,15.60
2019-05-25T07:15:38.635Z,15.80
2019-05-25T07:18:06.298Z,16.20
2019-05-25T07:20:33.935Z,16.00
2019-05-25T07:23:01.588Z,16.00
2019-05-25T07:25:29.227Z,15.90
2019-05-25T07:28:00.025Z,15.80
2019-05-25T07:30:26.266Z,15.90
2019-05-25T07:32:53.984Z,16.10
2019-05-25T07:35:21.635Z,16.30
2019-05-25T07:37:49.296Z,16.10
2019-05-25T07:42:44.314Z,16.40
2019-05-25T07:50:07.273Z,15.90
2019-05-25T07:52:34.946Z,16.80
2019-05-25T07:55:02.647Z,16.70
2019-05-25T07:57:30.304Z,16.80
2019-05-25T07:59:57.940Z,16.80
2019-05-25T08:02:25.591Z,16.90
2019-05-25T08:04:53.304Z,16.90
2019-05-25T08:07:20.975Z,16.70
2019-05-25T08:09:48.624Z,16.70
2019-05-25T08:12:16.279Z,16.90
2019-05-25T08:14:45.148Z,17.00
2019-05-25T08:17:12.954Z,17.20
2019-05-25T08:19:40.594Z,17.20
2019-05-25T08:22:08.235Z,17.10
2019-05-25T08:24:35.874Z,16.90
2019-05-25T08:27:03.657Z,16.90
2019-05-25T08:29:31.303Z,17.00
2019-05-25T08:31:58.932Z,16.90
2019-05-25T08:34:26.579Z,17.00
2019-05-25T08:36:54.298Z,17.00
2019-05-25T08:39:21.951Z,17.00
2019-05-25T08:41:49.591Z,17.10
2019-05-25T08:44:17.249Z,17.10
2019-05-25T08:46:45.123Z,17.10
2019-05-25T08:49:12.775Z,16.90
2019-05-25T08:51:40.417Z,16.90
2019-05-25T08:54:08.077Z,16.90
2019-05-25T08:56:35.720Z,17.00
2019-05-25T08:59:03.455Z,17.10
2019-05-25T09:01:31.132Z,17.20
2019-05-25T09:04:01.815Z,17.20
2019-05-25T09:06:29.467Z,17.00
2019-05-25T09:08:57.135Z,17.00
2019-05-25T09:11:24.842Z,16.90
2019-05-25T09:13:52.567Z,16.90
2019-05-25T09:16:20.265Z,16.90
2019-05-25T09:18:47.981Z,16.70
2019-05-25T09:21:15.668Z,16.70
2019-05-25T09:23:43.336Z,16.70
2019-05-25T09:26:13.355Z,16.50
2019-05-25T09:28:40.372Z,16.30
2019-05-25T09:31:08.019Z,16.40
2019-05-25T09:33:35.673Z,16.40
2019-05-25T09:36:03.330Z,16.40
2019-05-25T09:38:38.555Z,16.40
2019-05-25T09:43:34.556Z,16.00
2019-05-25T09:46:03.376Z,16.10
2019-05-25T09:53:25.977Z,15.90
2019-05-25T10:00:50.136Z,16.50
2019-05-25T10:03:17.787Z,16.80
2019-05-25T10:05:45.427Z,16.90
2019-05-25T10:10:40.566Z,17.30
2019-05-25T10:13:08.215Z,17.10
2019-05-25T10:15:35.875Z,17.20
2019-05-25T10:18:03.528Z,17.10
2019-05-25T10:20:31.195Z,17.30
2019-05-25T10:22:58.860Z,17.20
2019-05-25T10:25:26.596Z,17.40
2019-05-25T10:27:54.232Z,17.30
2019-05-25T10:30:22.041Z,17.60
2019-05-25T10:32:49.679Z,17.50
2019-05-25T10:35:17.410Z,17.30
2019-05-25T10:37:45.066Z,17.30
2019-05-25T10:40:12.959Z,17.20
2019-05-25T10:42:41.582Z,17.30
2019-05-25T10:45:09.620Z,17.30
2019-05-25T10:47:37.255Z,17.20
2019-05-25T10:50:06.452Z,17.20
2019-05-25T10:52:34.104Z,17.20
2019-05-25T10:55:01.998Z,17.30
2019-05-25T10:57:29.859Z,17.30
2019-05-25T10:59:57.515Z,17.50
2019-05-25T11:02:25.158Z,17.30
2019-05-25T11:04:52.827Z,17.70
2019-05-25T11:07:20.472Z,17.80
2019-05-25T11:09:48.133Z,18.10
2019-05-25T11:12:15.779Z,18.50
2019-05-25T11:14:43.452Z,18.80
2019-05-25T11:17:11.105Z,18.90
2019-05-25T11:19:38.836Z,19.10
2019-05-25T11:22:06.480Z,19.50
2019-05-25T11:24:34.149Z,19.60
2019-05-25T11:29:29.251Z,21.00
2019-05-25T11:36:53.359Z,21.70
2019-05-25T11:41:48.405Z,24.00
2019-05-25T11:46:43.441Z,25.30
2019-05-25T11:49:22.029Z,25.30
2019-05-25T11:51:40.479Z,24.80
2019-05-25T11:54:08.145Z,25.20
2019-05-25T11:56:35.820Z,26.30
2019-05-25T11:59:03.528Z,26.70
2019-05-25T12:06:26.035Z,28.00
2019-05-25T12:08:53.660Z,28.00
2019-05-25T12:11:21.335Z,27.70
2019-05-25T12:13:48.999Z,26.80
2019-05-25T12:16:16.671Z,25.80
2019-05-25T12:18:44.319Z,24.90
2019-05-25T12:21:12.012Z,25.20
2019-05-25T12:23:39.656Z,25.60
2019-05-25T12:26:07.316Z,26.50
2019-05-25T12:28:34.947Z,27.90
2019-05-25T12:33:29.983Z,26.50
2019-05-25T12:35:57.651Z,27.10
2019-05-25T12:40:53.907Z,29.30
2019-05-25T12:43:21.896Z,30.00
2019-05-25T12:45:49.543Z,29.60
2019-05-25T12:48:17.184Z,29.30
2019-05-25T12:50:44.842Z,28.20
2019-05-25T12:53:12.496Z,29.20
2019-05-25T12:55:40.159Z,29.50
2019-05-25T12:58:07.811Z,30.00
2019-05-25T13:00:35.468Z,30.10
2019-05-25T13:03:03.140Z,29.60
2019-05-25T13:05:34.616Z,30.20
2019-05-25T13:08:00.233Z,30.50
2019-05-25T13:12:57.683Z,31.80
2019-05-25T13:15:24.753Z,29.30
2019-05-25T13:17:52.455Z,29.30
2019-05-25T13:25:15.026Z,25.30
2019-05-25T13:27:42.666Z,25.40
2019-05-25T13:30:10.489Z,26.30
2019-05-25T13:32:38.130Z,26.30
2019-05-25T13:37:33.358Z,27.20
2019-05-25T13:40:01.000Z,28.90
2019-05-25T13:42:28.668Z,29.40
2019-05-25T13:44:56.307Z,30.30
2019-05-25T13:52:19.844Z,31.80
2019-05-25T13:54:47.479Z,31.80
2019-05-25T13:57:15.136Z,30.90
2019-05-25T13:59:42.791Z,29.40
2019-05-25T14:04:37.799Z,27.20
2019-05-25T14:07:05.455Z,27.70
2019-05-25T14:09:33.091Z,28.00
2019-05-25T14:12:00.747Z,28.90
2019-05-25T14:14:28.385Z,29.80
2019-05-25T14:16:56.043Z,30.50
2019-05-25T14:19:23.695Z,30.00
2019-05-25T14:21:51.417Z,29.80
2019-05-25T14:24:19.260Z,29.10
2019-05-25T14:26:46.979Z,28.50
2019-05-25T14:29:14.614Z,28.80
2019-05-25T14:31:45.850Z,29.50
2019-05-25T14:34:11.655Z,30.40
2019-05-25T14:36:39.309Z,29.80
2019-05-25T14:39:07.807Z,29.00
2019-05-25T14:41:35.462Z,28.10
2019-05-25T14:44:03.098Z,27.60
2019-05-25T14:46:30.747Z,27.00
2019-05-25T14:51:26.683Z,26.10
2019-05-25T14:53:54.321Z,25.10
2019-05-25T14:56:21.979Z,24.80
2019-05-25T14:58:49.660Z,24.50
2019-05-25T15:01:17.376Z,23.90
2019-05-25T15:03:45.026Z,23.50
2019-05-25T15:06:12.737Z,23.00
2019-05-25T15:08:40.376Z,22.90
2019-05-25T15:11:08.039Z,22.70
2019-05-25T15:13:35.671Z,22.60
2019-05-25T15:16:03.324Z,22.30
2019-05-25T15:18:30.991Z,21.80
2019-05-25T15:20:58.639Z,21.80
2019-05-25T15:23:26.295Z,21.70
2019-05-25T15:25:53.944Z,21.80
2019-05-25T15:28:21.597Z,21.80
2019-05-25T15:30:49.246Z,21.80
2019-05-25T15:33:17.859Z,21.70
2019-05-25T15:35:45.558Z,22.00
2019-05-25T15:38:13.279Z,22.40
2019-05-25T15:40:40.918Z,23.50
2019-05-25T15:43:08.578Z,23.90
2019-05-25T15:45:36.223Z,23.60
2019-05-25T15:48:03.885Z,23.50
2019-05-25T15:50:31.666Z,23.40
2019-05-25T15:52:59.425Z,23.70
2019-05-25T15:55:27.168Z,23.20
2019-05-25T15:57:54.970Z,23.10
2019-05-25T16:07:47.419Z,25.70
2019-05-25T16:10:15.457Z,25.20
2019-05-25T16:15:10.565Z,24.60
2019-05-25T16:17:38.421Z,23.70
2019-05-25T16:20:06.061Z,22.70
2019-05-25T16:22:33.813Z,22.50
2019-05-25T16:25:01.477Z,22.10
2019-05-25T16:27:29.147Z,21.80
2019-05-25T16:29:56.804Z,21.70
2019-05-25T16:39:46.916Z,20.80
2019-05-25T16:42:14.591Z,20.80
2019-05-25T16:44:42.229Z,20.90
2019-05-25T16:47:09.889Z,20.60
2019-05-25T16:49:37.551Z,20.60
2019-05-25T16:52:06.203Z,20.40
2019-05-25T16:54:33.864Z,20.10
2019-05-25T17:01:56.268Z,19.30
2019-05-25T17:04:23.932Z,19.10
2019-05-25T17:09:19.000Z,18.40
2019-05-25T17:14:14.095Z,17.70
2019-05-25T17:16:41.756Z,17.30
2019-05-25T17:21:36.785Z,16.80
2019-05-25T17:24:04.444Z,16.90
2019-05-25T17:26:32.100Z,16.90
2019-05-25T17:29:00.534Z,17.10
2019-05-25T17:31:28.188Z,17.40
2019-05-25T17:38:50.705Z,17.80
2019-05-25T17:41:18.385Z,17.90
2019-05-25T17:43:46.146Z,18.10
2019-05-25T17:46:14.802Z,18.20
2019-05-25T17:48:42.494Z,18.20
2019-05-25T17:51:10.196Z,18.20
2019-05-25T17:53:38.455Z,18.40
2019-05-25T17:56:06.200Z,18.30
2019-05-25T17:58:33.896Z,18.30
2019-05-25T18:01:01.552Z,18.10
2019-05-25T18:03:29.207Z,17.80
2019-05-25T18:05:56.856Z,17.80
2019-05-25T18:08:24.542Z,17.80
2019-05-25T18:10:54.363Z,17.70
2019-05-25T18:13:21.648Z,17.50
2019-05-25T18:15:49.763Z,17.40
2019-05-25T18:18:17.421Z,17.20
2019-05-25T18:20:45.086Z,17.10
2019-05-25T18:23:12.746Z,17.10
2019-05-25T18:25:40.405Z,16.80
2019-05-25T18:28:08.055Z,16.60
2019-05-25T18:33:04.057Z,16.30
2019-05-25T18:35:31.717Z,16.30
2019-05-25T18:37:59.456Z,16.30
2019-05-25T18:40:27.184Z,16.20
2019-05-25T18:42:54.845Z,16.00
2019-05-25T18:45:22.629Z,15.80
2019-05-25T18:47:50.284Z,15.80
2019-05-25T18:52:45.328Z,15.30
2019-05-25T18:55:13.166Z,15.20
2019-05-25T18:57:40.824Z,15.20
2019-05-25T19:00:09.069Z,15.30
2019-05-25T19:02:36.788Z,15.20
2019-05-25T19:05:05.265Z,15.10
2019-05-25T19:07:32.970Z,15.20
2019-05-25T19:10:00.628Z,15.20
2019-05-25T19:12:28.299Z,15.00
2019-05-25T19:14:55.974Z,15.10
2019-05-25T19:17:23.639Z,15.20
2019-05-25T19:19:51.311Z,15.20
2019-05-25T19:22:19.999Z,15.30
2019-05-25T19:24:47.656Z,15.30
2019-05-25T19:27:15.325Z,15.20
2019-05-25T19:29:42.973Z,15.10
2019-05-25T19:32:10.631Z,15.20
2019-05-25T19:34:38.348Z,15.10
2019-05-25T19:37:06.015Z,15.00
2019-05-25T19:39:33.659Z,14.80
2019-05-25T19:42:01.330Z,14.80
2019-05-25T19:44:29.052Z,14.70
2019-05-25T19:46:56.722Z,14.60
2019-05-25T19:49:24.396Z,14.40
2019-05-25T19:51:52.078Z,14.50
2019-05-25T19:54:19.784Z,14.50
2019-05-25T19:56:47.565Z,14.50
2019-05-25T19:59:15.236Z,14.60
2019-05-25T20:01:43.031Z,14.60
2019-05-25T20:04:10.669Z,14.50
2019-05-25T20:06:38.311Z,14.40
2019-05-25T20:09:06.348Z,14.40
2019-05-25T20:14:03.091Z,14.20
2019-05-25T20:16:30.753Z,14.20
2019-05-25T20:18:58.459Z,14.20
2019-05-25T20:21:26.134Z,14.20
2019-05-25T20:23:53.830Z,14.10
2019-05-25T20:26:21.562Z,14.10
2019-05-25T20:28:50.812Z,14.00
2019-05-25T20:31:18.751Z,13.90
2019-05-25T20:33:46.409Z,13.80
2019-05-25T20:36:14.087Z,13.60
2019-05-25T20:38:41.727Z,13.40
2019-05-25T20:41:09.395Z,13.30
2019-05-25T20:43:37.030Z,13.40
2019-05-25T20:46:04.711Z,13.60
2019-05-25T20:48:32.440Z,13.70
2019-05-25T20:51:00.111Z,13.70
2019-05-25T20:53:27.774Z,13.70
2019-05-25T20:55:55.440Z,13.70
2019-05-25T20:58:23.090Z,13.70
2019-05-25T21:00:50.753Z,13.60
2019-05-25T21:03:18.416Z,13.50
2019-05-25T21:05:50.641Z,13.50
2019-05-25T21:08:15.554Z,13.60
2019-05-25T21:10:43.189Z,13.70
2019-05-25T21:13:10.854Z,13.50
2019-05-25T21:15:38.514Z,13.60
2019-05-25T21:18:06.162Z,13.60
2019-05-25T21:20:33.870Z,13.20
2019-05-25T21:25:29.018Z,13.10
2019-05-25T21:27:56.800Z,13.20
2019-05-25T21:30:24.499Z,13.30
2019-05-25T21:32:52.212Z,13.40
2019-05-25T21:35:19.965Z,13.40
2019-05-25T21:37:47.615Z,13.50
2019-05-25T21:40:15.288Z,13.60
2019-05-25T21:42:42.950Z,13.60
2019-05-25T21:45:10.679Z,13.60
2019-05-25T21:47:38.357Z,13.50
2019-05-25T21:50:06.303Z,13.40
2019-05-25T21:52:34.020Z,13.20
2019-05-25T21:55:01.673Z,13.10
2019-05-25T21:57:29.336Z,13.30
2019-05-25T21:59:57.000Z,13.20
2019-05-25T22:02:24.661Z,13.20
2019-05-25T22:04:52.298Z,13.10
2019-05-25T22:07:19.951Z,13.00
2019-05-25T22:09:47.579Z,13.00
2019-05-25T22:12:15.249Z,13.00
2019-05-25T22:14:42.893Z,13.00
2019-05-25T22:17:10.561Z,13.00
2019-05-25T22:19:38.221Z,13.00
2019-05-25T22:22:05.882Z,13.00
2019-05-25T22:24:33.552Z,13.10
2019-05-25T22:27:01.199Z,13.10
2019-05-25T22:29:28.851Z,12.90
2019-05-25T22:31:56.527Z,12.80
2019-05-25T22:34:24.169Z,12.90
2019-05-25T22:36:51.837Z,12.80
2019-05-25T22:39:19.495Z,12.70
2019-05-25T22:41:47.178Z,12.70
2019-05-25T22:44:14.904Z,12.80
2019-05-25T22:46:42.550Z,12.90
2019-05-25T22:49:10.216Z,12.80
2019-05-25T22:51:37.876Z,12.80
2019-05-25T22:54:05.541Z,12.80
2019-05-25T22:56:33.209Z,12.80
2019-05-25T22:59:00.893Z,12.80
2019-05-25T23:01:28.534Z,12.80
2019-05-25T23:03:56.202Z,12.80
2019-05-25T23:06:23.864Z,12.80
2019-05-25T23:08:51.593Z,12.70
2019-05-25T23:11:19.268Z,12.70
2019-05-25T23:13:46.936Z,12.70
2019-05-25T23:16:14.581Z,12.70
2019-05-25T23:18:42.268Z,12.60
2019-05-25T23:21:09.920Z,12.60
2019-05-25T23:23:37.584Z,12.60
2019-05-25T23:26:05.313Z,12.50
2019-05-25T23:28:32.960Z,12.50
2019-05-25T23:31:00.618Z,12.50
2019-05-25T23:33:28.291Z,12.50
2019-05-25T23:35:55.967Z,12.50
2019-05-25T23:38:23.634Z,12.60
2019-05-25T23:40:51.291Z,12.70
2019-05-25T23:43:18.965Z,12.70
2019-05-25T23:45:46.602Z,12.70
2019-05-25T23:48:14.286Z,12.70
2019-05-25T23:50:41.924Z,12.70
2019-05-25T23:53:09.600Z,12.60
2019-05-25T23:55:37.256Z,12.70
2019-05-25T23:58:04.944Z,12.70
